Time;durP1;ratioP1;P1;durP2;ratioP2;P2;SDS_P1;SDS_P2;PMS_P1;PMS_P2;Temp;Humidity;BMP_temperature;BMP_pressure;BME280_temperature;BME280_humidity;BME280_pressure;Samples;Min_cycle;Max_cycle;Signal;HPM_P1;HPM_P2
2021/11/21 00:00:30;;;;;;;;;14.75;13.50;;;;;22.43;39.02;101393.31;5006710;28;51142;-49
2021/11/21 00:02:56;;;;;;;;;13.50;12.50;;;;;22.42;39.06;101388.88;5009174;27;52596;-52
2021/11/21 00:05:21;;;;;;;;;19.75;17.25;;;;;22.39;39.23;101392.91;5001759;28;51150;-52
2021/11/21 00:07:46;;;;;;;;;15.75;14.00;;;;;22.37;38.51;101383.16;5009860;28;51863;-52
2021/11/21 00:10:12;;;;;;;;;17.00;14.00;;;;;22.34;39.27;101383.63;4999695;28;51338;-51
2021/11/21 00:12:38;;;;;;;;;19.25;15.50;;;;;22.31;39.01;101370.28;4997998;28;51133;-50
2021/11/21 00:15:05;;;;;;;;;10.75;10.75;;;;;22.27;38.72;101372.59;5003630;27;51235;-51
2021/11/21 00:17:32;;;;;;;;;15.00;14.00;;;;;22.23;39.46;101368.59;5011397;28;51996;-51
2021/11/21 00:19:57;;;;;;;;;17.25;15.50;;;;;22.21;39.08;101367.16;4997654;28;51162;-49
2021/11/21 00:22:25;;;;;;;;;13.50;11.75;;;;;22.16;39.08;101365.03;5010481;28;51356;-56
2021/11/21 00:24:51;;;;;;;;;15.75;13.25;;;;;22.12;39.25;101361.88;5017724;28;51209;-48
2021/11/21 00:27:16;;;;;;;;;16.00;13.25;;;;;22.10;39.66;101363.16;5007883;27;51085;-50
2021/11/21 00:29:42;;;;;;;;;16.25;13.00;;;;;22.07;39.43;101358.91;5012040;28;51374;-47
2021/11/21 00:32:07;;;;;;;;;14.50;12.00;;;;;22.05;39.52;101360.19;5008791;28;52605;-49
2021/11/21 00:34:33;;;;;;;;;13.75;13.00;;;;;22.00;39.63;101349.81;5013647;28;51363;-49
2021/11/21 00:36:58;;;;;;;;;13.75;12.25;;;;;21.99;39.58;101350.91;5012872;28;51100;-48
2021/11/21 00:39:24;;;;;;;;;10.50;10.50;;;;;21.95;39.33;101343.25;5002899;27;51257;-49
2021/11/21 00:41:50;;;;;;;;;15.25;12.25;;;;;21.93;39.21;101348.16;5007991;27;51172;-49
2021/11/21 00:44:15;;;;;;;;;12.50;12.00;;;;;21.90;39.28;101336.50;5013216;27;51236;-50
2021/11/21 00:46:40;;;;;;;;;12.75;10.25;;;;;21.87;39.25;101330.56;5007074;28;51173;-51
2021/11/21 00:49:12;;;;;;;;;11.75;11.75;;;;;21.84;39.80;101326.34;5003999;28;52483;-51
2021/11/21 00:51:38;;;;;;;;;16.00;11.75;;;;;21.81;39.46;101324.03;5013440;28;51021;-51
2021/11/21 00:54:09;;;;;;;;;14.50;10.75;;;;;21.79;39.74;101325.31;5008566;28;51013;-50
2021/11/21 00:56:34;;;;;;;;;9.75;9.00;;;;;21.76;39.29;101331.25;5004447;28;52814;-51
2021/11/21 00:58:59;;;;;;;;;10.75;9.75;;;;;21.72;39.76;101322.59;5007682;28;51120;-52
2021/11/21 01:01:25;;;;;;;;;11.00;9.50;;;;;21.71;39.31;101326.41;4993971;27;51395;-53
2021/11/21 01:03:52;;;;;;;;;10.25;8.00;;;;;21.68;39.75;101310.31;5005924;28;51123;-53
2021/11/21 01:06:17;;;;;;;;;13.00;11.75;;;;;21.68;39.83;101317.75;5004694;27;52083;-49
2021/11/21 01:08:43;;;;;;;;;10.50;10.00;;;;;21.66;39.74;101315.19;5000435;28;51244;-50
2021/11/21 01:11:08;;;;;;;;;9.75;9.75;;;;;21.63;39.51;101318.38;5005551;28;51407;-50
2021/11/21 01:13:37;;;;;;;;;12.00;8.75;;;;;21.61;39.87;101310.34;5006363;28;51081;-51
2021/11/21 01:16:03;;;;;;;;;11.50;9.50;;;;;21.59;39.62;101314.38;5003316;28;51972;-53
2021/11/21 01:18:30;;;;;;;;;11.75;10.75;;;;;21.57;39.72;101319.25;5005680;27;51470;-51
2021/11/21 01:20:56;;;;;;;;;12.00;9.75;;;;;21.55;39.96;101321.38;5010910;28;51151;-51
2021/11/21 01:23:22;;;;;;;;;13.75;11.00;;;;;21.53;39.99;101312.47;5009257;28;51152;-50
2021/11/21 01:25:47;;;;;;;;;9.50;8.50;;;;;21.52;39.46;101314.38;4996427;28;51003;-50
2021/11/21 01:28:14;;;;;;;;;12.25;9.75;;;;;21.50;39.60;101312.94;5018594;27;51164;-50
2021/11/21 01:30:41;;;;;;;;;9.75;8.25;;;;;21.48;39.73;101318.66;5005854;28;51152;-50
2021/11/21 01:33:06;;;;;;;;;10.00;9.25;;;;;21.47;39.63;101308.69;4994063;28;51203;-48
2021/11/21 01:35:32;;;;;;;;;11.00;9.00;;;;;21.45;39.59;101298.94;5010448;28;52191;-48
2021/11/21 01:37:59;;;;;;;;;4.75;4.25;;;;;21.43;39.45;101301.06;5007838;28;51162;-48
2021/11/21 01:40:26;;;;;;;;;9.75;8.00;;;;;21.43;39.67;101295.56;5005732;28;51069;-49
2021/11/21 01:42:52;;;;;;;;;7.25;6.75;;;;;21.40;39.59;101305.13;5009178;28;50919;-51
2021/11/21 01:45:18;;;;;;;;;8.75;8.00;;;;;21.40;40.13;101304.28;5008493;28;51688;-51
2021/11/21 01:47:46;;;;;;;;;11.00;9.25;;;;;21.38;39.99;101298.97;5003108;28;51089;-52
2021/11/21 01:50:16;;;;;;;;;8.00;7.75;;;;;21.36;40.04;101303.84;5002800;28;51112;-51
2021/11/21 01:52:42;;;;;;;;;11.25;8.75;;;;;21.35;39.65;101304.91;5001199;28;51126;-52
2021/11/21 01:55:08;;;;;;;;;8.00;8.00;;;;;21.32;39.88;101306.19;5002713;28;52073;-53
2021/11/21 01:57:34;;;;;;;;;9.00;9.00;;;;;21.32;39.60;101302.59;5006774;28;51002;-50
2021/11/21 02:00:02;;;;;;;;;12.00;10.00;;;;;21.30;39.70;101300.06;5010630;28;51267;-51
2021/11/21 02:02:29;;;;;;;;;10.25;10.25;;;;;21.29;39.64;101295.63;5008948;28;51125;-51
2021/11/21 02:04:55;;;;;;;;;7.75;7.75;;;;;21.29;39.77;101294.75;5005364;28;51761;-50
2021/11/21 02:07:20;;;;;;;;;10.00;8.00;;;;;21.25;39.70;101297.06;4998164;28;51134;-52
2021/11/21 02:09:46;;;;;;;;;10.00;9.75;;;;;21.25;39.80;101290.69;4995366;28;51049;-52
2021/11/21 02:12:11;;;;;;;;;8.00;8.00;;;;;21.25;40.23;101291.53;4996648;27;50955;-50
2021/11/21 02:14:37;;;;;;;;;9.50;7.25;;;;;21.24;40.26;101280.75;5004075;28;52677;-51
2021/11/21 02:17:03;;;;;;;;;8.50;8.00;;;;;21.22;39.76;101278.22;5005298;27;51268;-52
2021/11/21 02:19:28;;;;;;;;;6.00;6.00;;;;;21.21;39.88;101281.19;5005995;28;51222;-51
2021/11/21 02:21:54;;;;;;;;;10.50;9.25;;;;;21.19;39.62;101278.66;4996783;28;51320;-52
2021/11/21 02:24:19;;;;;;;;;9.75;9.00;;;;;21.18;40.25;101274.22;5007153;28;52675;-50
2021/11/21 02:26:44;;;;;;;;;10.00;9.00;;;;;21.18;39.76;101267.84;5013642;27;51178;-52
2021/11/21 02:29:11;;;;;;;;;9.50;8.25;;;;;21.17;39.67;101263.41;5007259;27;51104;-50
2021/11/21 02:31:38;;;;;;;;;8.00;8.00;;;;;21.16;40.15;101256.22;5002496;28;51126;-48
2021/11/21 02:34:04;;;;;;;;;9.50;9.00;;;;;21.14;39.80;101267.41;5006995;28;51124;-50
2021/11/21 02:36:29;;;;;;;;;9.00;9.00;;;;;21.13;39.92;101257.47;5008225;28;51499;-49
2021/11/21 02:38:54;;;;;;;;;14.50;10.00;;;;;21.12;40.24;101261.28;4997734;28;51517;-52
2021/11/21 02:41:20;;;;;;;;;9.25;8.00;;;;;21.11;40.17;101256.00;4997867;28;51022;-51
2021/11/21 02:43:46;;;;;;;;;12.25;9.25;;;;;21.11;39.98;101248.59;5004692;28;51932;-52
2021/11/21 02:46:14;;;;;;;;;9.25;7.00;;;;;21.10;40.24;101252.41;4990712;27;51107;-50
2021/11/21 02:48:39;;;;;;;;;10.50;8.00;;;;;21.11;39.90;101256.00;5005128;28;51221;-51
2021/11/21 02:51:09;;;;;;;;;11.00;10.00;;;;;21.09;39.81;101242.44;5005924;27;51139;-52
2021/11/21 02:53:37;;;;;;;;;12.25;11.25;;;;;21.08;39.94;101251.78;5002297;28;53028;-51
2021/11/21 02:56:06;;;;;;;;;8.00;8.00;;;;;21.07;40.19;101247.34;5002663;28;51134;-49
2021/11/21 02:58:32;;;;;;;;;9.00;9.00;;;;;21.07;40.23;101241.81;5006922;27;51288;-51
2021/11/21 03:01:00;;;;;;;;;9.00;7.50;;;;;21.06;40.18;101231.03;5005569;27;51314;-52
2021/11/21 03:03:25;;;;;;;;;8.75;7.25;;;;;21.03;40.39;101219.34;5001056;27;51113;-49
2021/11/21 03:05:51;;;;;;;;;8.50;8.00;;;;;21.04;40.29;101220.19;5004254;28;51099;-49
2021/11/21 03:08:17;;;;;;;;;7.25;6.75;;;;;21.04;40.26;101217.44;5006414;27;51108;-51
2021/11/21 03:10:42;;;;;;;;;10.50;9.75;;;;;21.02;40.33;101212.16;5008245;28;51180;-49
2021/11/21 03:13:08;;;;;;;;;8.00;6.75;;;;;21.02;40.39;101216.81;5000218;28;51318;-52
2021/11/21 03:15:34;;;;;;;;;8.25;7.25;;;;;21.01;40.19;101215.97;4991444;27;51268;-49
2021/11/21 03:18:01;;;;;;;;;9.50;8.75;;;;;21.01;40.01;101209.63;4999037;28;51378;-50
2021/11/21 03:20:30;;;;;;;;;11.75;8.50;;;;;20.99;40.52;101195.25;4995997;28;51294;-51
2021/11/21 03:22:58;;;;;;;;;8.00;7.50;;;;;20.99;40.08;101192.47;5004186;28;52016;-51
2021/11/21 03:25:24;;;;;;;;;7.50;6.25;;;;;20.98;40.29;101194.38;5004318;28;50929;-46
2021/11/21 03:27:49;;;;;;;;;9.50;7.00;;;;;20.97;40.01;101191.84;5000505;28;51256;-47
2021/11/21 03:30:18;;;;;;;;;8.25;8.00;;;;;20.96;40.28;101196.53;5001009;27;51105;-49
2021/11/21 03:32:44;;;;;;;;;9.00;8.00;;;;;20.95;39.98;101194.00;5004273;27;51301;-49
2021/11/21 03:35:11;;;;;;;;;8.25;7.75;;;;;20.95;40.36;101189.31;5007085;28;51221;-48
2021/11/21 03:37:37;;;;;;;;;9.75;7.25;;;;;20.93;40.46;101187.81;5000630;28;51194;-55
2021/11/21 03:40:04;;;;;;;;;11.25;10.25;;;;;20.94;39.82;101184.00;5005772;28;51290;-52
2021/11/21 03:42:29;;;;;;;;;7.75;7.50;;;;;20.92;40.27;101195.25;4999286;28;51187;-52
2021/11/21 03:44:54;;;;;;;;;9.00;9.00;;;;;20.91;40.36;101182.53;5001498;28;51142;-51
2021/11/21 03:47:20;;;;;;;;;8.00;6.75;;;;;20.91;39.96;101189.97;5006007;27;51566;-52
2021/11/21 03:49:45;;;;;;;;;6.25;6.25;;;;;20.89;40.14;101187.44;5007592;28;51452;-52
2021/11/21 03:52:11;;;;;;;;;11.25;8.50;;;;;20.90;40.46;101188.28;5009125;28;51880;-48
2021/11/21 03:54:36;;;;;;;;;9.75;8.00;;;;;20.88;40.12;101177.47;4999839;28;51106;-53
2021/11/21 03:57:02;;;;;;;;;7.75;5.25;;;;;20.87;40.38;101186.81;5011364;28;51246;-52
2021/11/21 03:59:28;;;;;;;;;9.25;7.75;;;;;20.87;40.14;101184.06;5012111;28;51184;-49
2021/11/21 04:01:55;;;;;;;;;7.25;6.25;;;;;20.87;40.24;101189.56;4998833;28;50979;-51
2021/11/21 04:04:21;;;;;;;;;7.25;6.50;;;;;20.86;40.25;101192.53;5011306;28;51049;-52
2021/11/21 04:06:47;;;;;;;;;8.00;6.50;;;;;20.86;40.30;101193.38;5010525;28;51123;-49
2021/11/21 04:09:12;;;;;;;;;15.75;9.00;;;;;20.85;40.72;101194.44;5000634;28;51896;-51
2021/11/21 04:11:38;;;;;;;;;8.25;7.50;;;;;20.85;40.10;101185.34;5006428;28;51716;-49
2021/11/21 04:14:03;;;;;;;;;9.75;8.50;;;;;20.84;40.40;101184.50;5001441;27;51181;-47
2021/11/21 04:16:28;;;;;;;;;9.00;9.00;;;;;20.83;39.94;101179.19;5000417;28;51051;-49
2021/11/21 04:18:54;;;;;;;;;8.75;7.25;;;;;20.82;40.08;101175.56;4999590;28;51260;-47
2021/11/21 04:21:20;;;;;;;;;9.00;8.00;;;;;20.81;40.24;101170.28;5008615;28;51964;-48
2021/11/21 04:23:46;;;;;;;;;6.75;6.75;;;;;20.80;40.13;101163.94;5000408;28;51339;-53
2021/11/21 04:26:12;;;;;;;;;7.00;5.75;;;;;20.79;40.29;101162.25;5010038;28;51291;-53
2021/11/21 04:28:38;;;;;;;;;12.25;9.00;;;;;20.80;40.30;101160.34;5010074;27;51444;-52
2021/11/21 04:31:04;;;;;;;;;9.75;7.50;;;;;20.79;40.41;101161.41;5004435;28;51711;-50
2021/11/21 04:33:30;;;;;;;;;9.50;7.25;;;;;20.79;40.23;101155.91;5013650;28;50947;-53
2021/11/21 04:35:55;;;;;;;;;12.75;8.25;;;;;20.78;40.60;101151.47;5012965;28;51013;-52
2021/11/21 04:38:23;;;;;;;;;9.25;9.00;;;;;20.77;40.24;101152.53;5003431;28;50989;-52
2021/11/21 04:40:51;;;;;;;;;8.25;6.75;;;;;20.77;40.16;101141.50;5012815;28;52001;-51
2021/11/21 04:43:17;;;;;;;;;10.25;8.25;;;;;20.75;40.20;101139.84;5001258;28;51312;-51
2021/11/21 04:45:42;;;;;;;;;7.00;6.25;;;;;20.74;40.64;101143.66;5008040;28;51262;-52
2021/11/21 04:48:08;;;;;;;;;7.00;5.75;;;;;20.72;40.04;101143.00;5006318;27;51160;-52
2021/11/21 04:50:34;;;;;;;;;8.25;6.25;;;;;20.73;40.12;101139.19;5010290;28;51163;-49
2021/11/21 04:52:59;;;;;;;;;8.00;6.50;;;;;20.72;40.82;101137.50;5003993;28;51289;-51
2021/11/21 04:55:24;;;;;;;;;10.50;10.00;;;;;20.72;40.32;101136.63;5010226;28;51321;-48
2021/11/21 04:57:50;;;;;;;;;8.25;7.75;;;;;20.71;40.28;101134.97;5011047;28;51060;-52
2021/11/21 05:00:18;;;;;;;;;7.25;7.00;;;;;20.70;40.54;101125.84;5010692;28;51012;-52
2021/11/21 05:02:46;;;;;;;;;6.50;6.00;;;;;20.70;40.65;101131.34;5005311;27;51029;-50
2021/11/21 05:05:12;;;;;;;;;8.00;7.00;;;;;20.68;40.35;101122.47;5007613;28;51259;-49
2021/11/21 05:07:37;;;;;;;;;8.00;7.75;;;;;20.68;40.12;101125.22;4998684;28;51242;-51
2021/11/21 05:10:04;;;;;;;;;7.75;6.75;;;;;20.68;40.13;101122.47;4981685;28;51690;-52
2021/11/21 05:12:30;;;;;;;;;10.50;7.75;;;;;20.67;40.13;101114.44;5002604;28;51341;-48
2021/11/21 05:14:57;;;;;;;;;8.00;7.25;;;;;20.66;40.37;101121.84;5005540;28;51502;-49
2021/11/21 05:17:22;;;;;;;;;7.00;7.00;;;;;20.66;40.74;101112.75;5008284;28;51186;-51
2021/11/21 05:19:48;;;;;;;;;9.50;6.00;;;;;20.65;40.30;101109.16;5004695;28;52087;-52
2021/11/21 05:22:13;;;;;;;;;10.25;9.50;;;;;20.64;40.29;101101.97;5007440;28;51131;-53
2021/11/21 05:24:38;;;;;;;;;10.00;9.00;;;;;20.63;40.25;101100.25;5004186;28;51003;-52
2021/11/21 05:27:04;;;;;;;;;5.25;5.00;;;;;20.64;40.52;101103.88;5013911;27;51138;-52
2021/11/21 05:29:29;;;;;;;;;9.00;8.00;;;;;20.63;40.22;101110.41;5003502;28;51791;-52
2021/11/21 05:31:55;;;;;;;;;7.25;7.25;;;;;20.63;40.61;101103.00;5007343;28;51071;-52
2021/11/21 05:34:20;;;;;;;;;8.50;7.75;;;;;20.62;40.18;101103.22;5003245;28;51146;-49
2021/11/21 05:36:45;;;;;;;;;5.25;5.25;;;;;20.61;40.23;101102.38;5011542;27;51206;-51
2021/11/21 05:39:11;;;;;;;;;8.00;6.25;;;;;20.62;40.41;101103.22;5010687;28;51868;-51
2021/11/21 05:41:37;;;;;;;;;7.75;7.25;;;;;20.61;40.49;101104.28;5000854;28;51057;-50
2021/11/21 05:44:03;;;;;;;;;10.25;8.75;;;;;20.60;40.46;101106.19;5006442;28;51249;-52
2021/11/21 05:46:28;;;;;;;;;8.75;6.50;;;;;20.60;40.40;101097.09;4987415;27;51303;-52
2021/11/21 05:48:54;;;;;;;;;8.50;7.00;;;;;20.57;40.31;101101.13;5001079;28;51957;-52
2021/11/21 05:51:19;;;;;;;;;7.75;7.25;;;;;20.59;40.37;101100.91;5008096;28;51147;-52
2021/11/21 05:53:45;;;;;;;;;8.00;6.75;;;;;20.58;40.47;101090.97;5010306;28;51312;-51
2021/11/21 05:56:10;;;;;;;;;8.00;8.00;;;;;20.58;40.52;101097.31;5004529;27;51058;-52
2021/11/21 05:58:35;;;;;;;;;8.00;7.75;;;;;20.56;40.76;101085.69;5003915;28;51645;-52
2021/11/21 06:01:01;;;;;;;;;11.00;9.00;;;;;20.56;40.33;101087.59;5009981;27;51083;-51
2021/11/21 06:03:27;;;;;;;;;8.50;6.00;;;;;20.56;40.44;101090.34;5006773;28;51128;-51
2021/11/21 06:05:52;;;;;;;;;4.25;4.25;;;;;20.56;40.36;101087.59;5002662;28;51156;-52
2021/11/21 06:08:17;;;;;;;;;6.75;6.25;;;;;20.56;40.54;101084.84;5005895;28;51906;-47
2021/11/21 06:10:44;;;;;;;;;9.50;6.75;;;;;20.54;40.65;101078.72;5004947;28;51210;-52
2021/11/21 06:13:09;;;;;;;;;7.25;5.75;;;;;20.53;40.68;101075.13;5004925;27;51026;-52
2021/11/21 06:15:35;;;;;;;;;9.25;8.00;;;;;20.53;40.28;101068.75;5005181;27;51151;-52
2021/11/21 06:18:00;;;;;;;;;6.25;5.50;;;;;20.53;40.60;101074.25;5011482;28;51894;-51
2021/11/21 06:20:26;;;;;;;;;7.00;5.25;;;;;20.52;40.69;101076.16;5005355;28;51138;-51
2021/11/21 06:22:52;;;;;;;;;8.75;5.75;;;;;20.52;40.82;101073.41;4996255;28;51179;-51
2021/11/21 06:25:17;;;;;;;;;7.50;4.50;;;;;20.51;40.51;101071.72;4999410;28;51108;-52
2021/11/21 06:27:43;;;;;;;;;8.50;6.50;;;;;20.51;40.53;101070.88;4993603;28;51706;-51
2021/11/21 06:30:09;;;;;;;;;6.75;6.75;;;;;20.50;40.47;101081.03;5006447;27;51012;-53
2021/11/21 06:32:35;;;;;;;;;6.00;6.00;;;;;20.50;40.48;101072.78;5011010;28;51152;-50
2021/11/21 06:35:00;;;;;;;;;6.75;6.75;;;;;20.49;40.71;101073.00;5004611;28;51189;-49
2021/11/21 06:37:26;;;;;;;;;8.50;4.25;;;;;20.49;40.91;101075.75;5003877;28;50960;-51
2021/11/21 06:39:51;;;;;;;;;8.25;7.00;;;;;20.49;40.77;101075.75;5002297;28;51506;-53
2021/11/21 06:42:16;;;;;;;;;7.00;6.00;;;;;20.47;40.46;101067.72;5009684;27;51199;-49
2021/11/21 06:44:42;;;;;;;;;8.25;4.00;;;;;20.46;40.38;101060.53;4985812;28;51274;-51
2021/11/21 06:47:08;;;;;;;;;9.00;6.25;;;;;20.46;40.72;101064.13;5004494;28;51826;-50
2021/11/21 06:49:34;;;;;;;;;6.50;5.50;;;;;20.46;40.63;101066.03;5001565;28;51027;-51
2021/11/21 06:51:59;;;;;;;;;8.75;8.00;;;;;20.45;40.58;101067.09;5003721;27;51211;-53
2021/11/21 06:54:25;;;;;;;;;7.00;6.50;;;;;20.44;40.71;101077.25;5003251;28;51337;-52
2021/11/21 06:56:50;;;;;;;;;10.25;7.00;;;;;20.45;40.48;101072.59;5007423;27;51112;-52
2021/11/21 06:59:16;;;;;;;;;5.50;5.00;;;;;20.44;40.82;101068.16;5001096;28;51163;-49
2021/11/21 07:01:41;;;;;;;;;4.50;4.00;;;;;20.44;40.32;101070.91;5006974;28;51197;-47
2021/11/21 07:04:10;;;;;;;;;6.25;6.00;;;;;20.44;40.60;101076.41;5006849;28;51175;-50
2021/11/21 07:06:37;;;;;;;;;6.00;4.50;;;;;20.43;40.48;101075.56;5007401;28;51045;-50
2021/11/21 07:09:07;;;;;;;;;4.75;4.75;;;;;20.43;40.31;101070.06;5005589;28;51542;-52
2021/11/21 07:11:33;;;;;;;;;3.25;3.25;;;;;20.42;40.65;101061.97;5005645;28;52777;-50
2021/11/21 07:13:59;;;;;;;;;5.50;4.00;;;;;20.42;41.19;101068.34;5004088;28;51323;-52
2021/11/21 07:16:25;;;;;;;;;4.75;4.75;;;;;20.43;41.27;101069.22;5003107;28;51147;-52
2021/11/21 07:18:50;;;;;;;;;5.25;5.00;;;;;20.43;41.28;101070.06;5007857;27;51136;-49
2021/11/21 07:21:16;;;;;;;;;6.25;5.00;;;;;20.43;40.99;101067.31;5006771;28;51250;-52
2021/11/21 07:23:41;;;;;;;;;4.25;4.25;;;;;20.43;40.98;101066.47;4992085;27;51337;-53
2021/11/21 07:26:07;;;;;;;;;5.50;5.00;;;;;20.43;41.20;101066.47;5008428;28;51885;-49
2021/11/21 07:28:32;;;;;;;;;5.50;5.50;;;;;20.42;40.84;101061.97;5003360;28;51043;-48
2021/11/21 07:30:58;;;;;;;;;8.75;6.75;;;;;20.41;41.12;101058.38;4998892;27;51182;-50
2021/11/21 07:33:24;;;;;;;;;9.50;8.25;;;;;20.41;41.39;101069.38;4996020;28;51586;-51
2021/11/21 07:35:52;;;;;;;;;5.50;5.50;;;;;20.42;40.74;101064.72;5013771;28;51849;-52
2021/11/21 07:38:19;;;;;;;;;6.00;4.00;;;;;20.48;40.92;101058.41;5009011;28;51521;-50
2021/11/21 07:40:44;;;;;;;;;5.25;5.25;;;;;20.56;40.51;101062.81;5010962;28;51186;-54
2021/11/21 07:43:10;;;;;;;;;8.00;6.50;;;;;20.63;40.60;101052.63;5005722;28;51850;-53
2021/11/21 07:45:35;;;;;;;;;5.50;4.25;;;;;20.70;40.71;101057.03;5007010;28;51111;-51
2021/11/21 07:48:00;;;;;;;;;4.50;4.00;;;;;20.78;40.74;101061.44;5007489;28;51206;-51
2021/11/21 07:50:25;;;;;;;;;10.25;8.25;;;;;20.86;40.44;101058.47;5008123;28;51258;-49
2021/11/21 07:52:51;;;;;;;;;6.75;5.00;;;;;20.95;40.57;101053.53;5000714;27;51031;-50
2021/11/21 07:55:16;;;;;;;;;5.25;4.75;;;;;21.04;40.35;101055.78;5002744;28;51113;-51
2021/11/21 07:57:42;;;;;;;;;2.00;2.00;;;;;21.14;40.29;101060.81;5005438;28;51127;-53
2021/11/21 08:00:12;;;;;;;;;7.50;4.75;;;;;21.23;40.27;101061.41;4992323;28;51067;-54
2021/11/21 08:02:37;;;;;;;;;8.75;6.50;;;;;21.31;40.21;101055.66;5005860;28;52654;-52
2021/11/21 08:05:04;;;;;;;;;7.00;7.00;;;;;21.39;40.29;101060.06;4998627;27;51967;-52
2021/11/21 08:07:30;;;;;;;;;6.75;5.50;;;;;21.50;39.96;101059.34;5009712;28;51289;-52
2021/11/21 08:09:55;;;;;;;;;6.75;5.00;;;;;21.58;40.33;101059.06;4998366;27;51069;-51
2021/11/21 08:12:21;;;;;;;;;5.75;4.50;;;;;21.67;39.73;101054.09;5005038;27;51337;-52
2021/11/21 08:14:46;;;;;;;;;9.00;7.00;;;;;21.74;40.03;101050.22;5000557;27;51134;-51
2021/11/21 08:17:12;;;;;;;;;7.75;6.50;;;;;21.78;39.98;101054.25;5004970;28;51153;-54
2021/11/21 08:19:38;;;;;;;;;9.75;6.25;;;;;21.79;39.49;101052.31;5000998;28;51144;-51
2021/11/21 08:22:04;;;;;;;;;12.75;6.00;;;;;21.77;39.99;101048.91;5003879;28;51436;-53
2021/11/21 08:24:30;;;;;;;;;7.50;6.00;;;;;21.76;39.53;101050.00;5005851;28;52168;-53
2021/11/21 08:26:55;;;;;;;;;6.50;6.25;;;;;21.75;39.52;101053.81;5009953;28;51144;-52
2021/11/21 08:29:21;;;;;;;;;8.00;6.75;;;;;21.72;40.23;101057.03;4993886;28;51265;-52
2021/11/21 08:31:48;;;;;;;;;9.00;6.50;;;;;21.72;40.03;101057.03;5004789;28;51117;-53
2021/11/21 08:34:13;;;;;;;;;5.50;5.50;;;;;21.72;40.03;101055.13;5002948;28;51745;-54
2021/11/21 08:36:39;;;;;;;;;8.00;5.50;;;;;21.76;40.25;101042.56;4999469;28;51127;-52
2021/11/21 08:39:04;;;;;;;;;8.50;5.00;;;;;21.85;40.45;101052.25;5007781;27;51211;-50
2021/11/21 08:41:29;;;;;;;;;4.50;4.50;;;;;21.94;39.71;101046.44;5005887;27;51110;-49
2021/11/21 08:43:56;;;;;;;;;6.25;6.25;;;;;22.02;39.84;101055.28;5001921;28;52719;-51
2021/11/21 08:46:22;;;;;;;;;8.00;5.75;;;;;22.10;39.96;101048.66;5000953;28;51667;-51
2021/11/21 08:48:47;;;;;;;;;7.25;6.50;;;;;22.14;39.90;101042.44;4998239;28;51181;-51
2021/11/21 08:51:12;;;;;;;;;7.25;6.25;;;;;22.18;39.77;101045.56;5001795;28;51501;-49
2021/11/21 08:53:38;;;;;;;;;5.25;5.25;;;;;22.18;39.51;101037.28;4999658;28;51753;-48
2021/11/21 08:56:03;;;;;;;;;6.25;6.25;;;;;22.16;39.85;101045.81;4997725;28;51060;-50
2021/11/21 08:58:29;;;;;;;;;8.50;5.25;;;;;22.16;39.51;101058.75;5002948;28;51328;-52
2021/11/21 09:00:54;;;;;;;;;6.75;4.50;;;;;22.14;39.79;101055.41;5006223;28;51238;-48
2021/11/21 09:03:19;;;;;;;;;6.25;4.75;;;;;22.12;39.39;101055.63;5017530;27;51443;-52
2021/11/21 09:05:45;;;;;;;;;7.00;4.25;;;;;22.09;39.90;101057.97;5000297;27;51069;-51
2021/11/21 09:08:11;;;;;;;;;8.00;5.00;;;;;22.08;40.04;101061.81;5006285;28;51262;-51
2021/11/21 09:10:37;;;;;;;;;8.75;6.75;;;;;22.06;40.22;101053.75;5008227;28;51462;-52
2021/11/21 09:13:02;;;;;;;;;6.25;6.00;;;;;22.05;40.12;101051.22;4995545;27;51884;-53
2021/11/21 09:15:28;;;;;;;;;11.00;7.00;;;;;22.05;40.05;101043.78;5000044;27;51237;-49
2021/11/21 09:17:53;;;;;;;;;8.00;7.00;;;;;22.07;40.19;101040.81;5003388;28;51386;-52
2021/11/21 09:20:20;;;;;;;;;9.00;7.00;;;;;22.13;39.55;101040.75;4998768;28;51188;-50
2021/11/21 09:22:46;;;;;;;;;6.75;4.75;;;;;22.23;39.65;101031.09;4996071;28;54221;-51
2021/11/21 09:25:11;;;;;;;;;6.75;6.25;;;;;22.30;39.39;101027.22;5005738;28;51137;-52
2021/11/21 09:27:37;;;;;;;;;8.75;6.50;;;;;22.37;39.82;101027.94;5007313;28;51596;-51
2021/11/21 09:30:04;;;;;;;;;6.75;5.50;;;;;22.41;39.25;101029.19;5002409;28;51273;-54
2021/11/21 09:32:29;;;;;;;;;8.25;6.00;;;;;22.42;39.25;101030.88;4998677;27;52483;-52
2021/11/21 09:34:54;;;;;;;;;9.75;7.00;;;;;22.39;39.56;101036.00;5001033;28;51447;-50
2021/11/21 09:37:20;;;;;;;;;8.50;7.75;;;;;22.35;39.12;101040.31;5000685;28;51144;-51
2021/11/21 09:39:45;;;;;;;;;9.00;7.50;;;;;22.32;38.81;101049.06;5003999;28;51146;-52
2021/11/21 09:42:13;;;;;;;;;5.00;5.00;;;;;22.27;39.56;101048.88;5004941;28;51101;-52
2021/11/21 09:44:38;;;;;;;;;7.75;7.75;;;;;22.22;39.47;101060.63;5002704;28;51441;-54
2021/11/21 09:47:04;;;;;;;;;7.50;6.75;;;;;22.16;39.02;101062.38;5003707;28;51182;-51
2021/11/21 09:49:29;;;;;;;;;8.50;7.00;;;;;22.13;39.06;101057.31;5006515;28;51174;-50
2021/11/21 09:51:56;;;;;;;;;6.50;6.50;;;;;22.09;39.01;101055.22;5008017;28;51038;-52
2021/11/21 09:54:28;;;;;;;;;8.75;6.75;;;;;22.10;39.81;101041.22;4996711;28;51070;-52
2021/11/21 09:56:55;;;;;;;;;9.00;8.50;;;;;22.16;39.84;101050.47;5006394;28;51436;-51
2021/11/21 09:59:59;;;;;;;;;7.75;7.75;;;;;22.23;39.08;101042.16;5002526;27;51264;-49
2021/11/21 10:02:31;;;;;;;;;10.50;7.25;;;;;22.31;39.08;101033.56;4997987;27;51137;-49
2021/11/21 10:04:59;;;;;;;;;9.50;7.00;;;;;22.34;39.65;101038.63;5001960;27;51347;-50
2021/11/21 10:07:31;;;;;;;;;7.00;6.75;;;;;22.36;39.05;101042.00;5007315;27;51935;-51
2021/11/21 10:09:58;;;;;;;;;10.25;7.50;;;;;22.34;39.62;101047.75;5004009;28;50993;-49
2021/11/21 10:12:32;;;;;;;;;8.00;8.00;;;;;22.31;39.57;101034.41;5011914;28;51769;-50
2021/11/21 10:15:08;;;;;;;;;5.50;5.25;;;;;22.27;39.60;101032.31;5004566;28;51194;-49
2021/11/21 10:17:37;;;;;;;;;7.75;6.25;;;;;22.22;39.70;101035.78;5008382;28;51395;-49
2021/11/21 10:20:06;;;;;;;;;9.00;5.50;;;;;22.18;39.34;101017.97;4989348;27;51184;-52
2021/11/21 10:22:53;;;;;;;;;7.50;5.00;;;;;22.13;39.09;101015.94;5005253;28;51872;-48
2021/11/21 10:25:34;;;;;;;;;8.00;7.00;;;;;22.09;39.44;101016.59;5002529;28;52240;-49
2021/11/21 10:28:12;;;;;;;;;8.25;7.25;;;;;22.09;39.59;101013.84;5015464;27;51049;-51
2021/11/21 10:31:05;;;;;;;;;5.75;4.75;;;;;22.16;39.29;101017.38;5007216;28;51182;-46
2021/11/21 10:33:34;;;;;;;;;8.50;6.50;;;;;22.19;39.06;101015.00;5000693;28;51068;-51
2021/11/21 10:36:01;;;;;;;;;9.75;8.00;;;;;22.27;38.87;101026.81;4998838;28;51451;-50
2021/11/21 10:38:51;;;;;;;;;8.00;6.25;;;;;22.32;38.63;101021.44;4997201;28;51545;-51
2021/11/21 10:41:21;;;;;;;;;10.50;5.75;;;;;22.35;39.28;101016.31;5009750;27;51301;-50
2021/11/21 10:43:55;;;;;;;;;7.00;5.25;;;;;22.35;38.58;101016.31;5008010;28;51047;-52
2021/11/21 10:46:44;;;;;;;;;6.50;6.00;;;;;22.31;39.21;101012.34;5000246;28;52103;-50
2021/11/21 10:49:31;;;;;;;;;7.25;6.00;;;;;22.27;38.95;101005.56;4995793;28;51152;-52
2021/11/21 10:51:56;;;;;;;;;7.75;7.75;;;;;22.22;38.73;101008.19;5002242;28;51130;-50
2021/11/21 10:54:24;;;;;;;;;4.67;4.67;;;;;22.17;39.26;101003.34;5004225;28;51999;-51
2021/11/21 10:56:53;;;;;;;;;7.00;6.75;;;;;22.13;38.55;101009.56;5004565;28;51347;-52
2021/11/21 10:59:55;;;;;;;;;6.75;6.75;;;;;22.09;38.67;101008.31;4996470;28;50992;-51
2021/11/21 11:02:22;;;;;;;;;9.00;7.00;;;;;22.04;38.85;101014.50;5000820;28;51991;-52
2021/11/21 11:05:09;;;;;;;;;6.75;6.75;;;;;22.03;38.58;101012.81;4999142;28;51805;-51
2021/11/21 11:07:41;;;;;;;;;7.25;7.00;;;;;22.04;38.61;101000.72;4998924;28;51244;-48
2021/11/21 11:10:11;;;;;;;;;8.00;6.50;;;;;22.09;38.72;101005.56;5007401;28;51362;-47
2021/11/21 11:12:36;;;;;;;;;7.75;6.00;;;;;22.16;38.99;100998.06;4997299;28;51346;-51
2021/11/21 11:15:03;;;;;;;;;5.75;5.50;;;;;22.22;38.55;100999.91;5006775;27;52537;-50
2021/11/21 11:17:28;;;;;;;;;5.75;4.25;;;;;22.26;38.69;101001.13;4999933;28;51330;-52
2021/11/21 11:19:58;;;;;;;;;7.25;6.00;;;;;22.27;38.30;100997.28;5000708;28;51686;-50